Seatac, WA

4:46 AM PDT en Septiembre 30, 2016 (GMT -0700)
Seattle-Tacoma International | | Change Station

Alt 433 ft 47.44 °N, 122.31 °W | Updated 53 minutes ago

Partly Cloudy
Parcialmente nublado
49 ° F
Sensación térmica 49 ° F
N
7
Viento Variable Viento desde ESE

Hoy
Alta -- | Baja -- ° F
--% Posibilidad de precipitaciones
Ayer
Alta -- | Baja -- ° F
Precip. -- pul
Presión 30.08 pul
Visibilidad 10.0 Millas
Nubes Baja 25000 ft
Punto de rocío 44 ° F
Humedad 83%
Precipitaciones 0.00 pul
Espesor de la nieve No disponible.
7:07 AM 6:49 PM
Creciente menguante, 0% visible
METAR KSEA 301053Z 12006KT 10SM FEW250 09/07 A3006 RMK AO2 SLP184 T00940067 $
Presión 30.08 pul
Visibilidad 10.0 Millas
Nubes Baja 25000 ft
Punto de rocío 44 ° F
Humedad 83%
Precipitaciones 0.00 pul
Espesor de la nieve No disponible.
7:07 AM 6:49 PM
Creciente menguante, 0% visible
METAR KSEA 301053Z 12006KT 10SM FEW250 09/07 A3006 RMK AO2 SLP184 T00940067 $

10-Day Weather Forecast

Almanac

Astronomía

Sep. 30, 2016 Salida Puesta
Hora real
Crepúsculo civil
Crepúsculo náutico
Crepúsculo astronómico
Luna
Horas de luz
Horas de luz
Tomorrow will be .
, % of the Moon is Illuminated

Extremos de hoy

Máximos del estado Bajos del estado

Community

WunderPhotos

Upload Photos

1,942,697 ¡fotos cargadas!

WunderBlog® & News

Nearby

Calidad del aire

  Calidad del aire Índice AQ Contaminante
Not available.

Grosos de nieve

Estación Profundido Altura

Actividad de terremotos

Ciudad Distance Mag. Tiempo y dato
Magnitud mínima muestra es 2,5.

Temperaturas de aguas costeras

Lugar Temperatura

Stations

Estaciones meteorológicas cercanas

Ubicación de la estación Temp. Vientos helados Punto de rocío Humedad Viento Precip. Alt Actualizado Tipo
                   

Watches & Warnings

There are currently no watches in effect.